CheckWX is a tool to help pilots better visualize weather data.  It is not intended as a substitute for an official pre-flight weather briefing.

19:16:18 UTC

ETAD METAR
Spangdahlem Air Base Airport
Trier, Germany
Current

20 mins ago

ETAD 261856Z AUTO 23007KT 9999 OVC060 17/10 A2991 RMK AO2 SLP114 T01690098 $
Observed
May-26 @ 18:56 UTC
Wind
  • 230° at 7 KTS
Visibility
10,000+ meters
Flight Rules
VFR
Cloud Levels
  • Overcast at 6,000' AGL
Temperature
17°C / 63°F
Dewpoint
10°C / 50°F
Humidity
64%
Altimeter
29.91" Hg
Pressure
1012.92 hPa
Previous

1 hour ago

ETAD 261756Z AUTO 25007KT 9999 OVC065 18/09 A2993 RMK AO2 SLP123 T01770093 10200 20177 56008 $
Observed
May-26 @ 17:56 UTC
Wind
  • 250° at 7 KTS
Visibility
10,000+ meters
Flight Rules
VFR
Cloud Levels
  • Overcast at 6,500' AGL
Temperature
18°C / 64°F
Dewpoint
C / 48°F
Humidity
56%
Altimeter
29.93" Hg
Pressure
1013.52 hPa
Previous

2 hours ago

ETAD 261656Z AUTO 25008KT 9999 FEW045 OVC060 18/09 A2993 RMK AO2 SLP124 T01800085 $
Observed
May-26 @ 16:56 UTC
Wind
  • 250° at 8 KTS
Visibility
10,000+ meters
Flight Rules
VFR
Cloud Levels
  • Few at 4,500' AGL
  • Overcast at 6,000' AGL
Temperature
18°C / 64°F
Dewpoint
C / 48°F
Humidity
56%
Altimeter
29.93" Hg
Pressure
1013.52 hPa